地図

経路データ

SID SEASON NUMBER BASIN SUBBASIN NAME ISO_TIME NATURE LAT LON WMO_WIND WMO_PRES WMO_AGENCY TRACK_TYPE DIST2LAND LANDFALL IFLAG USA_AGENCY USA_ATCF_ID USA_LAT USA_LON USA_RECORD USA_STATUS USA_WIND USA_PRES USA_SSHS USA_R34_NE USA_R34_SE USA_R34_SW USA_R34_NW USA_R50_NE USA_R50_SE USA_R50_SW USA_R50_NW USA_R64_NE USA_R64_SE USA_R64_SW USA_R64_NW USA_POCI USA_ROCI USA_RMW USA_EYE TOKYO_LAT TOKYO_LON TOKYO_GRADE TOKYO_WIND TOKYO_PRES TOKYO_R50_DIR TOKYO_R50_LONG TOKYO_R50_SHORT TOKYO_R30_DIR TOKYO_R30_LONG TOKYO_R30_SHORT TOKYO_LAND CMA_LAT CMA_LON CMA_CAT CMA_WIND CMA_PRES HKO_LAT HKO_LON HKO_CAT HKO_WIND HKO_PRES NEWDELHI_LAT NEWDELHI_LON NEWDELHI_GRADE NEWDELHI_WIND NEWDELHI_PRES NEWDELHI_CI NEWDELHI_DP NEWDELHI_POCI REUNION_LAT REUNION_LON REUNION_TYPE REUNION_WIND REUNION_PRES REUNION_TNUM REUNION_CI REUNION_RMW REUNION_R34_NE REUNION_R34_SE REUNION_R34_SW REUNION_R34_NW REUNION_R50_NE REUNION_R50_SE REUNION_R50_SW REUNION_R50_NW REUNION_R64_NE REUNION_R64_SE REUNION_R64_SW REUNION_R64_NW BOM_LAT BOM_LON BOM_TYPE BOM_WIND BOM_PRES BOM_TNUM BOM_CI BOM_RMW BOM_R34_NE BOM_R34_SE BOM_R34_SW BOM_R34_NW BOM_R50_NE BOM_R50_SE BOM_R50_SW BOM_R50_NW BOM_R64_NE BOM_R64_SE BOM_R64_SW BOM_R64_NW BOM_ROCI BOM_POCI BOM_EYE BOM_POS_METHOD BOM_PRES_METHOD NADI_LAT NADI_LON NADI_CAT NADI_WIND NADI_PRES WELLINGTON_LAT WELLINGTON_LON WELLINGTON_WIND WELLINGTON_PRES DS824_LAT DS824_LON DS824_STAGE DS824_WIND DS824_PRES TD9636_LAT TD9636_LON TD9636_STAGE TD9636_WIND TD9636_PRES TD9635_LAT TD9635_LON TD9635_WIND TD9635_PRES TD9635_ROCI NEUMANN_LAT NEUMANN_LON NEUMANN_CLASS NEUMANN_WIND NEUMANN_PRES MLC_LAT MLC_LON MLC_CLASS MLC_WIND MLC_PRES USA_GUST BOM_GUST BOM_GUST_PER REUNION_GUST REUNION_GUST_PER USA_SEAHGT USA_SEARAD_NE USA_SEARAD_SE USA_SEARAD_SW USA_SEARAD_NW STORM_SPEED STORM_DIR
1970330S09138 1971 151 SP EA BEVERLEY-EVA:EVA(BEV-EVA) 1970-11-26 06:00:00 TS -9.00000 138.000 1003 bom main 67 67 ______O__O____ -1 -9.00000 138.000 1003 -9.00000 138.000 TC 25 1003 11 270
1970330S09138 1971 151 SP EA BEVERLEY-EVA:EVA(BEV-EVA) 1970-11-26 09:00:00 TS -8.99705 137.463 main 68 68 ______P__P____ -1 -8.99637 137.464 1003 -8.99773 137.463 TC 25 1003 9 270
1970330S09138 1971 151 SP EA BEVERLEY-EVA:EVA(BEV-EVA) 1970-11-26 12:00:00 TS -9.00000 137.057 1003 bom main 86 86 ______O__O__O_ -1 -9.00000 137.000 1003 -9.00000 137.000 TC 25 1003 -9.00000 137.400 TC 25 1003 7 268
1970330S09138 1971 151 SP EA BEVERLEY-EVA:EVA(BEV-EVA) 1970-11-26 15:00:00 TS -9.02351 136.750 main 119 119 ______P__P__P_ -1 -9.02047 136.658 1003 -9.01454 136.665 TC 25 1003 -9.04755 137.100 TC 25 1003 5 262
1970330S09138 1971 151 SP EA BEVERLEY-EVA:EVA(BEV-EVA) 1970-11-26 18:00:00 TS -9.07444 136.520 main 144 144 ______P__P__O_ -1 -9.07227 136.406 1003 -9.05743 136.425 TC 25 1003 -9.10000 136.800 TC 25 1003 5 252
1970330S09138 1971 151 SP EA BEVERLEY-EVA:EVA(BEV-EVA) 1970-11-26 21:00:00 TS -9.16251 136.304 main 168 168 ______P__P__P_ -1 -9.17092 136.191 1003 -9.14664 136.222 TC 25 1003 -9.16998 136.500 TC 25 1003 5 244
1970330S09138 1971 151 SP EA BEVERLEY-EVA:EVA(BEV-EVA) 1970-11-26 23:30:00 TS -9.28042 136.097 1003 bom main 193 193 ______O__P__P_ -1 -9.30000 136.000 1003 -9.26923 136.041 TC 25 1003 -9.27204 136.250 TC 25 1003 6 239
1970330S09138 1971 151 SP EA BEVERLEY-EVA:EVA(BEV-EVA) 1970-11-27 00:00:00 TS -9.31198 136.047 main 202 202 ______P__O__O_ -1 -9.33594 135.941 1002 -9.30000 136.000 TC 25 1003 -9.30000 136.200 TC 25 1003 8 235
1970330S09138 1971 151 SP EA BEVERLEY-EVA:EVA(BEV-EVA) 1970-11-27 03:00:00 TS -9.56096 135.693 main 248 248 ______P__P__P_ -1 -9.59885 135.557 1002 -9.56408 135.614 TC 26 1002 -9.51996 135.907 TC 25 1002 9 232
1970330S09138 1971 151 SP EA BEVERLEY-EVA:EVA(BEV-EVA) 1970-11-27 06:00:00 TS -9.86527 135.327 main 248 213 ______P__P__O_ -1 -9.91032 135.169 1001 -9.88548 135.211 TC 27 1002 -9.80000 135.600 TC 25 1002 10 229
1970330S09138 1971 151 SI WA BEVERLEY-EVA:EVA(BEV-EVA) 1970-11-27 09:00:00 TS -10.1849 134.963 main 213 175 ______P__P__P_ -1 -10.2256 134.831 1001 -10.2141 134.852 TC 28 1001 -10.1151 135.205 TC 25 1001 9 226
1970330S09138 1971 151 SI WA BEVERLEY-EVA:EVA(BEV-EVA) 1970-11-27 12:00:00 TS -10.4667 134.700 1001 bom main 175 160 ______O__O__O_ -1 -10.5000 134.600 1001 -10.5000 134.600 TC 30 1001 -10.4000 134.900 TC 25 1001 6 215
1970330S09138 1971 151 SI WA BEVERLEY-EVA:EVA(BEV-EVA) 1970-11-27 15:00:00 TS -10.6354 134.643 main 160 145 ______P__P__P_ -1 -10.6668 134.551 1001 -10.6670 134.539 TC 30 1001 -10.5724 134.840 TC 25 1001 3 182
1970330S09138 1971 151 SI WA BEVERLEY-EVA:EVA(BEV-EVA) 1970-11-27 18:00:00 TS -10.7600 134.698 main 145 134 ______P__P__O_ -1 -10.7927 134.607 1001 -10.7873 134.587 TC 30 1001 -10.7000 134.900 TC 25 1001 3 151
1970330S09138 1971 151 SI WA BEVERLEY-EVA:EVA(BEV-EVA) 1970-11-27 21:00:00 TS -10.8805 134.785 main 134 123 ______P__P__P_ -1 -10.9026 134.712 1001 -10.8890 134.692 TC 30 1001 -10.8500 134.950 TC 25 1001 3 145
1970330S09138 1971 151 SI WA BEVERLEY-EVA:EVA(BEV-EVA) 1970-11-27 23:30:00 TS -10.9849 134.859 1001 bom main 123 123 ______O__P__P_ -1 -11.0000 134.800 1001 -10.9797 134.784 TC 30 1001 -10.9750 134.994 TC 25 1001 3 147
1970330S09138 1971 151 SI WA BEVERLEY-EVA:EVA(BEV-EVA) 1970-11-28 00:00:00 TS -11.0091 134.868 main 123 101 ______P__O__O_ -1 -11.0273 134.805 1000 -11.0000 134.800 TC 30 1001 -11.0000 135.000 TC 25 1001 3 0
1970330S09138 1971 151 SI WA BEVERLEY-EVA:EVA(BEV-EVA) 1970-11-28 03:00:00 TS -11.1761 134.887 main 101 90 ______P__P__P_ -1 -11.2013 134.832 1000 -11.1769 134.828 TC 30 1000 -11.1500 135.000 TC 27 1000 3 173
1970330S09138 1971 151 SI WA BEVERLEY-EVA:EVA(BEV-EVA) 1970-11-28 06:00:00 TS -11.3489 134.901 main 90 68 ______P__P__O_ -1 -11.3817 134.852 1000 -11.3650 134.850 TC 30 1000 -11.3000 135.000 TC 30 1000 3 174
1970330S09138 1971 151 SI WA BEVERLEY-EVA:EVA(BEV-EVA) 1970-11-28 09:00:00 TS -11.5188 134.929 main 68 49 ______P__P__P_ -1 -11.5531 134.872 1000 -11.5456 134.872 TC 30 1000 -11.4575 135.042 TC 30 1000 3 167
1970330S09138 1971 151 SI WA BEVERLEY-EVA:EVA(BEV-EVA) 1970-11-28 12:00:00 TS -11.6667 134.967 1000 bom main 49 40 ______O__O__O_ -1 -11.7000 134.900 1000 -11.7000 134.900 TC 30 1000 -11.6000 135.100 TC 30 1000 3 158
1970330S09138 1971 151 SP EA BEVERLEY-EVA:EVA(BEV-EVA) 1970-11-28 15:00:00 TS -11.7599 135.025 main 40 40 ______P__P__P_ -1 -11.7667 134.960 998 -11.8067 134.946 TC 32 998 -11.7075 135.150 TC 32 998 2 144
1970330S09138 1971 151 SP EA BEVERLEY-EVA:EVA(BEV-EVA) 1970-11-28 18:00:00 TS -11.8334 135.086 main 46 35 ______P__P__O_ -1 -11.8168 135.024 997 -11.8855 134.998 TC 35 997 -11.8000 135.200 TC 35 997 2 140
1970330S09138 1971 151 SP EA BEVERLEY-EVA:EVA(BEV-EVA) 1970-11-28 21:00:00 TS -11.9088 135.150 main 33 22 ______P__P__P_ -1 -11.8908 135.076 996 -11.9465 135.051 TC 37 996 -11.9000 135.272 TC 37 996 2 146
1970330S09138 1971 151 SP EA BEVERLEY-EVA:EVA(BEV-EVA) 1970-11-28 23:30:00 TS -11.9905 135.190 995 bom main 22 22 ______O__P__P_ -1 -12.0000 135.100 995 4 -11.9912 135.092 TC 39 995 -11.9833 135.302 TC 39 995 2 147
1970330S09138 1971 151 SP EA BEVERLEY-EVA:EVA(BEV-EVA) 1970-11-29 00:00:00 TS -12.0088 135.215 main 22 11 ______P__O__O_ -1 -12.0310 135.102 995 -12.0000 135.100 TC 40 995 -12.0000 135.300 TC 40 995 3 164
1970330S09138 1971 151 SP EA BEVERLEY-EVA:EVA(BEV-EVA) 1970-11-29 02:30:00 TS -12.1278 135.234 995 bom main 11 11 ______O_____P_ -1 -12.2000 135.100 995 TC -12.1098 135.267 TC 40 995 3 165
1970330S09138 1971 151 SP EA BEVERLEY-EVA:EVA(BEV-EVA) 1970-11-29 03:00:00 TS -12.1299 135.253 main 11 0 ____________P_ -1 TC -12.1299 135.253 TC 40 995 3 241
1970330S09138 1971 151 SP EA BEVERLEY-EVA:EVA(BEV-EVA) 1970-11-29 06:00:00 TS -12.2000 135.100 main 10 0 ____________O_ -1 TC -12.2000 135.100 TC 40 995 4 271
1970330S09138 1971 151 SI WA BEVERLEY-EVA:EVA(BEV-EVA) 1970-11-29 09:00:00 TS -12.1225 134.830 main 0 0 ____________P_ -1 TC -12.1225 134.830 TC 40 995 6 289
1970330S09138 1971 151 SI WA BEVERLEY-EVA:EVA(BEV-EVA) 1970-11-29 12:00:00 TS -12.0000 134.500 main 11 10 ____________O_ -1 TC -12.0000 134.500 TC 40 995 6 286
1970330S09138 1971 151 SI WA BEVERLEY-EVA:EVA(BEV-EVA) 1970-11-29 15:00:00 TS -11.9425 134.200 main 11 10 ____________P_ -1 TC -11.9425 134.200 TC 37 995 6 280
1970330S09138 1971 151 SI WA BEVERLEY-EVA:EVA(BEV-EVA) 1970-11-29 18:00:00 TS -11.9000 133.900 main 10 0 ____________O_ -1 TC -11.9000 133.900 TC 35 996 6 279
1970330S09138 1971 151 SI WA BEVERLEY-EVA:EVA(BEV-EVA) 1970-11-29 21:00:00 TS -11.8500 133.600 main 10 0 ____________P_ -1 TC -11.8500 133.600 TC 35 996 6 280
1970330S09138 1971 151 SI WA BEVERLEY-EVA:EVA(BEV-EVA) 1970-11-30 00:00:00 TS -11.8000 133.300 main 0 0 ____________O_ -1 TC -11.8000 133.300 TC 35 996 6 280
1970330S09138 1971 151 SI WA BEVERLEY-EVA:EVA(BEV-EVA) 1970-11-30 03:00:00 TS -11.7500 133.000 main 0 0 ____________P_ -1 TC -11.7500 133.000 TC 37 996 6 280
1970330S09138 1971 151 SI WA BEVERLEY-EVA:EVA(BEV-EVA) 1970-11-30 06:00:00 TS -11.7000 132.700 main 0 0 ____________O_ -1 TC -11.7000 132.700 TC 40 997 6 280
1970330S09138 1971 151 SI WA BEVERLEY-EVA:EVA(BEV-EVA) 1970-11-30 09:00:00 TS -11.6500 132.400 main 15 11 ____________P_ -1 TC -11.6500 132.400 TC 37 997 6 280
1970330S09138 1971 151 SI WA BEVERLEY-EVA:EVA(BEV-EVA) 1970-11-30 12:00:00 TS -11.6000 132.100 main 11 11 ____________O_ -1 TC -11.6000 132.100 TC 35 997 6 280
1970330S09138 1971 151 SI WA BEVERLEY-EVA:EVA(BEV-EVA) 1970-11-30 15:00:00 TS -11.5500 131.800 main 24 0 ____________P_ -1 TC -11.5500 131.800 TC 35 997 6 280
1970330S09138 1971 151 SI WA BEVERLEY-EVA:EVA(BEV-EVA) 1970-11-30 18:00:00 TS -11.5000 131.500 main 0 0 ____________O_ -1 TC -11.5000 131.500 TC 35 998 6 280
1970330S09138 1971 151 SI WA BEVERLEY-EVA:EVA(BEV-EVA) 1970-11-30 21:00:00 TS -11.4500 131.200 main 0 0 ____________P_ -1 TC -11.4500 131.200 TC 35 998 6 280
1970330S09138 1971 151 SI WA BEVERLEY-EVA:EVA(BEV-EVA) 1970-12-01 00:00:00 TS -11.4000 130.900 main 0 0 ____________O_ -1 TC -11.4000 130.900 TC 35 998 6 280
1970330S09138 1971 151 SI WA BEVERLEY-EVA:EVA(BEV-EVA) 1970-12-01 03:00:00 TS -11.3500 130.600 main 0 0 ____________P_ -1 TC -11.3500 130.600 TC 32 998 6 280
1970330S09138 1971 151 SI WA BEVERLEY-EVA:EVA(BEV-EVA) 1970-12-01 06:00:00 TS -11.3000 130.300 main 11 11 ____________O_ -1 TC -11.3000 130.300 TC 30 999 6 281
1970330S09138 1971 151 SI WA BEVERLEY-EVA:EVA(BEV-EVA) 1970-12-01 09:00:00 TS -11.2424 130.022 main 31 31 ____________P_ -1 TC -11.2424 130.022 TC 30 999 6 280
1970330S09138 1971 151 SI WA BEVERLEY-EVA:EVA(BEV-EVA) 1970-12-01 12:00:00 TS -11.2000 129.700 main 55 55 ____________O_ -1 TC -11.2000 129.700 TC 30 999 7 280
1970330S09138 1971 151 SI WA BEVERLEY-EVA:EVA(BEV-EVA) 1970-12-01 15:00:00 TS -11.1244 129.369 main 88 88 ____________P_ -1 TC -11.1244 129.369 TC 32 998 8 279
1970330S09138 1971 151 SI WA BEVERLEY-EVA:EVA(BEV-EVA) 1970-12-01 16:00:00 TS -11.1183 129.175 1000 bom main 107 107 ______O_____P_ -1 -11.1000 129.000 1000 TC -11.1228 129.218 TC 33 998 15 259
1970330S09138 1971 151 SI WA BEVERLEY-EVA:EVA(BEV-EVA) 1970-12-01 18:00:00 TS -11.2666 128.600 main 165 165 ______P_____O_ -1 -11.3999 128.201 997 TC -11.2000 128.800 TC 35 998 22 251
1970330S09138 1971 151 SI WA BEVERLEY-EVA:EVA(BEV-EVA) 1970-12-01 21:00:00 TS -11.7140 127.419 main 237 193 ______P_____P_ -1 -11.8574 127.053 993 TC -11.6064 127.694 TC 40 994 24 247
1970330S09138 1971 151 SI WA BEVERLEY-EVA:EVA(BEV-EVA) 1970-12-01 23:30:00 TS -12.1122 126.526 990 bom main 195 187 ______O_____P_ -1 -12.2000 126.300 990 TC -12.0243 126.753 TC 44 990 22 245
1970330S09138 1971 151 SI WA BEVERLEY-EVA:EVA(BEV-EVA) 1970-12-02 00:00:00 TS -12.1792 126.396 main 187 168 ______P_____O_ -1 -12.2584 126.193 990 TC -12.1000 126.600 TC 45 990 12 237
1970330S09138 1971 151 SI WA BEVERLEY-EVA:EVA(BEV-EVA) 1970-12-02 03:00:00 TS -12.4966 125.929 main 169 149 ______P_____P_ -1 -12.5640 125.770 990 TC -12.4292 126.087 TC 45 990 9 230
1970330S09138 1971 151 SI WA BEVERLEY-EVA:EVA(BEV-EVA) 1970-12-02 06:00:00 TS -12.7598 125.681 main 141 141 ______P_____O_ -1 -12.8197 125.562 990 TC -12.7000 125.800 TC 45 990 7 224
1970330S09138 1971 151 SI WA BEVERLEY-EVA:EVA(BEV-EVA) 1970-12-02 07:00:00 TS -12.8445 125.590 990 bom main 144 134 ______O_____P_ -1 -12.9000 125.500 990 TC -12.7890 125.680 TC 45 989 8 231
1970330S09138 1971 151 SI WA BEVERLEY-EVA:EVA(BEV-EVA) 1970-12-02 09:00:00 TS -13.0118 125.365 main 135 130 ______P_____P_ -1 -13.0662 125.279 TC -12.9574 125.450 TC 47 988 8 234
1970330S09138 1971 151 SI WA BEVERLEY-EVA:EVA(BEV-EVA) 1970-12-02 12:00:00 TS -13.2496 125.019 main 139 125 ______P_____O_ -1 -13.2992 124.938 TC -13.2000 125.100 TC 50 987 9 236
1970330S09138 1971 151 SI WA BEVERLEY-EVA:EVA(BEV-EVA) 1970-12-02 15:00:00 TS -13.4893 124.640 main 139 132 ______P_____P_ -1 -13.5210 124.580 TC -13.4575 124.700 TC 52 985 9 238
1970330S09138 1971 151 SI WA BEVERLEY-EVA:EVA(BEV-EVA) 1970-12-02 18:00:00 TS -13.7205 124.250 main 147 140 ______P_____O_ -1 -13.7411 124.200 TC -13.7000 124.300 TC 55 984 9 239
1970330S09138 1971 151 SI WA BEVERLEY-EVA:EVA(BEV-EVA) 1970-12-02 21:00:00 TS -13.9305 123.879 main 160 160 ______P_____P_ -1 -13.9687 123.793 TC -13.8923 123.965 TC 57 982 9 240
1970330S09138 1971 151 SI WA BEVERLEY-EVA:EVA(BEV-EVA) 1970-12-03 00:00:00 TS -14.1566 123.477 main 179 179 ______P_____O_ -1 -14.2132 123.354 TC -14.1000 123.600 TC 60 981 9 240
1970330S09138 1971 151 SI WA BEVERLEY-EVA:EVA(BEV-EVA) 1970-12-03 01:00:00 TS -14.2443 123.325 980 bom main 196 187 ______O_____P_ -1 -14.3000 123.200 980 TC -14.1886 123.450 TC 60 980 12 242
1970330S09138 1971 151 SI WA BEVERLEY-EVA:EVA(BEV-EVA) 1970-12-03 03:00:00 TS -14.4310 122.953 main 201 201 ______P_____P_ -1 -14.4770 122.783 978 TC -14.3850 123.123 TC 62 978 13 242
1970330S09138 1971 151 SI WA BEVERLEY-EVA:EVA(BEV-EVA) 1970-12-03 06:00:00 TS -14.7288 122.374 main 208 198 ______P_____O_ -1 -14.7576 122.147 975 TC -14.7000 122.600 TC 65 976 12 241
1970330S09138 1971 151 SI WA BEVERLEY-EVA:EVA(BEV-EVA) 1970-12-03 09:00:00 TS -15.0276 121.822 main 205 196 ______P_____P_ -1 -15.0625 121.611 972 TC -14.9927 122.033 TC 70 973 11 235
1970330S09138 1971 151 SI WA BEVERLEY-EVA:EVA(BEV-EVA) 1970-12-03 12:00:00 TS -15.3500 121.450 970 bom main 201 178 ______O_____O_ -1 -15.4000 121.300 970 TC -15.3000 121.600 TC 75 970 8 213
1970330S09138 1971 151 SI WA BEVERLEY-EVA:EVA(BEV-EVA) 1970-12-03 15:00:00 TS -15.7182 121.357 main 178 170 ______P_____P_ -1 -15.7791 121.268 970 TC -15.6573 121.445 TC 75 970 7 189
1970330S09138 1971 151 SI WA BEVERLEY-EVA:EVA(BEV-EVA) 1970-12-03 16:00:00 TS -15.8384 121.372 970 bom main 170 154 ______O_____P_ -1 -15.9000 121.300 970 TC -15.7769 121.445 TC 75 970 7 167
1970330S09138 1971 151 SI WA BEVERLEY-EVA:EVA(BEV-EVA) 1970-12-03 18:00:00 TS -16.0582 121.441 main 147 116 ______P_____O_ -1 -16.1163 121.383 970 TC -16.0000 121.500 TC 75 970 7 154
1970330S09138 1971 151 SI WA BEVERLEY-EVA:EVA(BEV-EVA) 1970-12-03 21:00:00 TS -16.3335 121.627 main 116 70 ______P_____P_ -1 -16.3944 121.607 970 TC -16.2725 121.647 TC 75 970 7 139
1970330S09138 1971 151 SI WA BEVERLEY-EVA:EVA(BEV-EVA) 1970-12-04 00:00:00 TS -16.5645 121.899 main 70 62 ______P_____O_ -1 -16.6291 121.898 970 TC -16.5000 121.900 TC 75 970 7 131
1970330S09138 1971 151 SI WA BEVERLEY-EVA:EVA(BEV-EVA) 1970-12-04 01:00:00 TS -16.6388 121.997 970 bom main 62 33 ______O_____P_ -1 -16.7000 122.000 970 4 TC -16.5777 121.994 TC 75 970 7 127
1970330S09138 1971 151 SI WA BEVERLEY-EVA:EVA(BEV-EVA) 1970-12-04 03:00:00 TS -16.7818 122.200 main 33 24 ______P_____P_ -1 -16.8411 122.201 970 TC -16.7226 122.200 TC 75 970 7 125
1970330S09138 1971 151 SI WA BEVERLEY-EVA:EVA(BEV-EVA) 1970-12-04 04:00:00 TS -16.8440 122.302 970 bom main 24 0 ______O_____P_ -1 -16.9000 122.300 970 TC -16.7880 122.305 TC 75 970 6 120
1970330S09138 1971 151 SI WA BEVERLEY-EVA:EVA(BEV-EVA) 1970-12-04 06:00:00 TS -16.9408 122.489 main 0 0 ______P_____O_ -1 -16.9815 122.478 972 TC -16.9000 122.500 TC 75 971 5 115
1970330S09138 1971 151 SI WA BEVERLEY-EVA:EVA(BEV-EVA) 1970-12-04 09:00:00 TS -17.0280 122.710 main 0 0 ______P_____P_ -1 -17.0412 122.713 975 TC -17.0149 122.708 TC 62 974 4 110
1970330S09138 1971 151 SI WA BEVERLEY-EVA:EVA(BEV-EVA) 1970-12-04 12:00:00 TS -17.0903 122.914 main 0 0 ______P_____O_ -1 -17.0806 122.929 978 TC -17.1000 122.900 TC 50 977 4 108
1970330S09138 1971 151 SI WA BEVERLEY-EVA:EVA(BEV-EVA) 1970-12-04 13:00:00 TS -17.1154 122.990 980 bom main 0 0 ______O_____P_ -1 -17.1000 123.000 980 TC -17.1307 122.980 TC 50 977 5 113
1970330S09138 1971 151 SI WA BEVERLEY-EVA:EVA(BEV-EVA) 1970-12-04 15:00:00 TS -17.1841 123.150 main 0 0 ______P_____P_ -1 -17.1756 123.151 981 TC -17.1925 123.150 TC 52 980 5 117
1970330S09138 1971 151 SI WA BEVERLEY-EVA:EVA(BEV-EVA) 1970-12-04 18:00:00 TS -17.3065 123.387 main 0 0 ______P_____O_ -1 -17.3130 123.374 984 TC -17.3000 123.400 TC 55 983 5 122
1970330S09138 1971 151 SI WA BEVERLEY-EVA:EVA(BEV-EVA) 1970-12-04 21:00:00 TS -17.4569 123.599 main 0 0 ______P_____P_ -1 -17.4714 123.597 986 TC -17.4424 123.600 TC 55 985 5 128
1970330S09138 1971 151 SI WA BEVERLEY-EVA:EVA(BEV-EVA) 1970-12-05 00:00:00 TS -17.6210 123.812 main 0 0 ______P_____O_ -1 -17.6420 123.824 989 TC -17.6000 123.800 TC 55 988 5 128
1970330S09138 1971 151 SI WA BEVERLEY-EVA:EVA(BEV-EVA) 1970-12-05 01:00:00 TS -17.6737 123.889 990 bom main 0 0 ______O_____P_ -1 -17.7000 123.900 990 TC -17.6474 123.878 TC 54 988 6 126
1970330S09138 1971 151 SI WA BEVERLEY-EVA:EVA(BEV-EVA) 1970-12-05 03:00:00 TS -17.7885 124.053 main 0 0 ______P_____P_ -1 -17.8344 124.063 TC -17.7425 124.043 TC 52 989 6 127
1970330S09138 1971 151 SI WA BEVERLEY-EVA:EVA(BEV-EVA) 1970-12-05 06:00:00 TS -17.9768 124.308 main 0 0 ______P_____O_ -1 -18.0537 124.317 TC -17.9000 124.300 TC 50 991 6 130
1970330S09138 1971 151 SI WA BEVERLEY-EVA:EVA(BEV-EVA) 1970-12-05 09:00:00 TS -18.1911 124.563 main 0 0 ______P_____P_ -1 -18.2821 124.576 TC -18.1000 124.550 TC 42 992 6 131
1970330S09138 1971 151 SI WA BEVERLEY-EVA:EVA(BEV-EVA) 1970-12-05 12:00:00 TS -18.4031 124.819 main 0 0 ______P_____O_ -1 -18.5063 124.837 TC -18.3000 124.800 TC 35 994 8 120
1970330S09138 1971 151 SI WA BEVERLEY-EVA:EVA(BEV-EVA) 1970-12-05 15:00:00 TS -18.5652 125.252 main 0 0 ______P_____P_ -1 -18.7127 125.097 TC -18.4500 125.050 TC 32 995 8 107
1970330S09138 1971 151 SI WA BEVERLEY-EVA:EVA(BEV-EVA) 1970-12-05 18:00:00 TS -18.6363 125.626 main 0 0 ______P_____O_ -1 -18.8878 125.352 TC -18.6000 125.300 TC 30 996 6 106
1970330S09138 1971 151 SI WA BEVERLEY-EVA:EVA(BEV-EVA) 1970-12-05 21:00:00 TS -18.7339 125.854 main 0 0 ______P_____P_ -1 -19.0184 125.596 TC -18.8375 125.557 TC 30 997 4 130
1970330S09138 1971 151 SI WA BEVERLEY-EVA:EVA(BEV-EVA) 1970-12-06 00:00:00 TS -18.8960 125.956 main 0 0 ______P__O__O_ -1 -19.0910 125.827 -17.7000 127.100 TC 25 1002 -19.0000 125.800 TC 30 999 5 171
1970330S09138 1971 151 SI WA BEVERLEY-EVA:EVA(BEV-EVA) 1970-12-06 01:00:00 TS -19.0518 125.888 1000 bom main 0 0 ______O_____P_ -1 -19.1000 125.900 1000 TC -19.0035 125.875 TC 29 999 3 153
1970330S09138 1971 151 SI WA BEVERLEY-EVA:EVA(BEV-EVA) 1970-12-06 03:00:00 TS -19.0229 126.027 main 0 0 ______P_____P_ -1 -19.0934 126.040 TC -18.9525 126.015 TC 27 999 4 66
1970330S09138 1971 151 SI WA BEVERLEY-EVA:EVA(BEV-EVA) 1970-12-06 06:00:00 TS -18.9132 126.217 main 0 0 ______P_____O_ -1 -19.0264 126.235 TC -18.8000 126.200 TC 25 1000 4 54
1970330S09138 1971 151 SI WA BEVERLEY-EVA:EVA(BEV-EVA) 1970-12-06 09:00:00 TS -18.7822 126.382 main 0 0 ______P_____P_ -1 -18.8994 126.414 TC -18.6649 126.350 TC 25 1000 4 45
1970330S09138 1971 151 SI WA BEVERLEY-EVA:EVA(BEV-EVA) 1970-12-06 12:00:00 TS -18.6110 126.540 main 0 0 ______P_____O_ -1 -18.7219 126.579 TC -18.5000 126.500 TC 25 1000 5 40
1970330S09138 1971 151 SI WA BEVERLEY-EVA:EVA(BEV-EVA) 1970-12-06 15:00:00 TS -18.4055 126.717 main 0 0 ______P_____P_ -1 -18.5034 126.734 TC -18.3075 126.700 TC 22 1000 5 38
1970330S09138 1971 151 SI WA BEVERLEY-EVA:EVA(BEV-EVA) 1970-12-06 18:00:00 TS -18.1876 126.888 main 0 0 ______P_____O_ -1 -18.2533 126.880 TC -18.1000 126.900 TC 20 1001 6 34
1970330S09138 1971 151 SI WA BEVERLEY-EVA:EVA(BEV-EVA) 1970-12-06 21:00:00 TS -17.9476 127.037 main 0 0 ______P_____P_ -1 -17.9810 127.019 TC -17.8975 127.063 TC 20 1001 6 29
1970330S09138 1971 151 SI WA BEVERLEY-EVA:EVA(BEV-EVA) 1970-12-07 00:00:00 TS -17.6974 127.170 main 0 0 ______P_____O_ -1 -17.6961 127.155 TC -17.7000 127.200 TC 20 1001 6 24
1970330S09138 1971 151 SI WA BEVERLEY-EVA:EVA(BEV-EVA) 1970-12-07 01:00:00 NR -17.6000 127.200 1002 bom main 0 ______O_______ -1 -17.6000 127.200 1002 TC TC 6 21

デジタル台風データ・検索

IBTrACS Databaseについて

本データベースは、米国NOAAが公開する1842年以降の世界の熱帯低気圧のベストトラックデータアーカイブInternational Best Track Archive for Climate Stewardship (IBTrACS)を、ウェブで閲覧しやすい形式に変換したものです。

最終更新日:2021-10-25